createdAt,value
2022-09-09T00:02:03.960Z,23.20
2022-09-09T00:05:32.071Z,23.20
2022-09-09T00:09:08.068Z,23.20
2022-09-09T00:12:53.614Z,23.20
2022-09-09T00:16:17.257Z,23.20
2022-09-09T00:20:01.425Z,23.20
2022-09-09T00:23:31.172Z,23.20
2022-09-09T00:27:02.070Z,23.20
2022-09-09T00:30:36.085Z,23.20
2022-09-09T00:34:19.900Z,23.20
2022-09-09T00:37:43.604Z,23.20
2022-09-09T00:41:39.977Z,23.20
2022-09-09T00:45:21.195Z,23.20
2022-09-09T00:48:51.952Z,23.10
2022-09-09T00:52:37.819Z,23.10
2022-09-09T00:56:17.573Z,23.20
2022-09-09T00:59:58.266Z,23.20
2022-09-09T01:03:25.301Z,23.10
2022-09-09T01:06:53.193Z,23.10
2022-09-09T01:10:42.614Z,23.10
2022-09-09T01:14:37.307Z,23.10
2022-09-09T01:18:14.138Z,23.10
2022-09-09T01:21:45.900Z,23.10
2022-09-09T01:25:19.148Z,23.10
2022-09-09T01:28:55.874Z,23.10
2022-09-09T01:32:52.106Z,23.10
2022-09-09T01:36:25.945Z,23.10
2022-09-09T01:39:49.350Z,23.10
2022-09-09T01:43:12.889Z,23.10
2022-09-09T01:46:35.508Z,23.10
2022-09-09T01:50:00.349Z,23.10
2022-09-09T01:53:24.776Z,23.10
2022-09-09T01:56:52.113Z,23.10
2022-09-09T02:00:17.149Z,23.10
2022-09-09T02:03:40.354Z,23.10
2022-09-09T02:07:28.735Z,23.10
2022-09-09T02:11:01.771Z,23.10
2022-09-09T02:14:49.689Z,23.10
2022-09-09T02:18:15.101Z,23.10
2022-09-09T02:21:38.524Z,23.10
2022-09-09T02:25:01.557Z,23.10
2022-09-09T02:28:29.587Z,23.10
2022-09-09T02:31:54.439Z,23.10
2022-09-09T02:35:25.245Z,23.10
2022-09-09T02:38:54.065Z,23.10
2022-09-09T02:42:20.410Z,23.10
2022-09-09T02:45:56.748Z,23.10
2022-09-09T02:49:25.250Z,23.10
2022-09-09T02:53:06.690Z,23.10
2022-09-09T02:56:34.742Z,23.10
2022-09-09T03:00:02.622Z,23.10
2022-09-09T03:03:27.213Z,23.10
2022-09-09T03:06:50.260Z,23.10
2022-09-09T03:10:15.856Z,23.10
2022-09-09T03:13:38.970Z,23.10
2022-09-09T03:17:03.373Z,23.10
2022-09-09T03:20:31.837Z,23.10
2022-09-09T03:23:54.441Z,23.10
2022-09-09T03:27:16.735Z,23.10
2022-09-09T03:30:39.065Z,23.10
2022-09-09T03:34:02.077Z,23.00
2022-09-09T03:37:26.990Z,23.00
2022-09-09T03:40:58.480Z,23.10
2022-09-09T03:44:21.519Z,23.10
2022-09-09T03:47:43.933Z,23.10
2022-09-09T03:51:06.252Z,23.00
2022-09-09T03:54:30.051Z,23.10
2022-09-09T03:57:52.452Z,23.10
2022-09-09T04:01:18.718Z,23.00
2022-09-09T04:04:41.840Z,23.00
2022-09-09T04:08:04.149Z,23.10
2022-09-09T04:11:26.569Z,23.00
2022-09-09T04:14:51.241Z,23.10
2022-09-09T04:18:16.947Z,23.00
2022-09-09T04:21:42.435Z,23.10
2022-09-09T04:25:05.035Z,23.00
2022-09-09T04:28:29.960Z,23.10
2022-09-09T04:31:52.335Z,23.00
2022-09-09T04:35:15.363Z,23.00
2022-09-09T04:38:37.886Z,23.00
2022-09-09T04:42:00.559Z,23.00
2022-09-09T04:45:23.064Z,23.00
2022-09-09T04:48:45.553Z,23.00
2022-09-09T04:52:08.335Z,23.00
2022-09-09T04:55:33.081Z,23.00
2022-09-09T04:58:56.409Z,23.00
2022-09-09T05:02:23.633Z,23.00
2022-09-09T05:05:46.878Z,23.00
2022-09-09T05:09:09.946Z,23.00
2022-09-09T05:12:33.297Z,23.00
2022-09-09T05:15:56.505Z,23.00
2022-09-09T05:19:20.948Z,23.00
2022-09-09T05:22:44.895Z,23.00
2022-09-09T05:26:08.737Z,23.00
2022-09-09T05:29:32.989Z,22.90
2022-09-09T05:32:59.030Z,22.90
2022-09-09T05:36:22.999Z,22.90
2022-09-09T05:39:49.650Z,22.90
2022-09-09T05:43:12.957Z,22.90
2022-09-09T05:46:36.405Z,23.00
2022-09-09T05:50:00.170Z,23.00
2022-09-09T05:53:22.603Z,23.00
2022-09-09T05:56:49.849Z,23.00
2022-09-09T06:00:16.020Z,23.10
2022-09-09T06:03:43.033Z,23.00
2022-09-09T06:07:06.597Z,23.10
2022-09-09T06:10:29.216Z,23.10
2022-09-09T06:13:55.486Z,23.10
2022-09-09T06:17:17.754Z,22.80
2022-09-09T06:20:40.063Z,22.60
2022-09-09T06:24:02.764Z,22.30
2022-09-09T06:27:25.130Z,22.10
2022-09-09T06:30:48.177Z,22.10
2022-09-09T06:34:10.877Z,22.00
2022-09-09T06:37:37.823Z,22.10
2022-09-09T06:41:01.041Z,22.30
2022-09-09T06:44:24.445Z,22.50
2022-09-09T06:47:46.737Z,22.50
2022-09-09T06:51:14.592Z,22.50
2022-09-09T06:54:38.476Z,22.30
2022-09-09T06:58:03.569Z,22.10
2022-09-09T07:01:29.960Z,22.00
2022-09-09T07:04:53.729Z,22.00
2022-09-09T07:08:16.180Z,22.00
2022-09-09T07:11:47.533Z,22.00
2022-09-09T07:15:11.837Z,22.10
2022-09-09T07:18:37.661Z,22.10
2022-09-09T07:22:00.131Z,22.00
2022-09-09T07:25:22.981Z,21.90
2022-09-09T07:28:45.315Z,21.80
2022-09-09T07:32:07.883Z,21.60
2022-09-09T07:35:33.229Z,21.60
2022-09-09T07:38:59.237Z,21.60
2022-09-09T07:42:21.891Z,21.60
2022-09-09T07:45:44.581Z,21.50
2022-09-09T07:49:07.797Z,21.40
2022-09-09T07:52:30.426Z,21.30
2022-09-09T07:55:56.704Z,21.30
2022-09-09T07:59:19.962Z,21.30
2022-09-09T08:02:45.105Z,21.30
2022-09-09T08:06:09.759Z,21.40
2022-09-09T08:09:33.439Z,21.40
2022-09-09T08:13:18.293Z,21.50
2022-09-09T08:16:46.151Z,21.80
2022-09-09T08:20:10.654Z,22.10
2022-09-09T08:23:35.139Z,22.20
2022-09-09T08:26:57.790Z,22.30
2022-09-09T08:30:20.653Z,22.40
2022-09-09T08:33:46.860Z,22.40
2022-09-09T08:37:09.211Z,22.40
2022-09-09T08:40:44.734Z,22.40
2022-09-09T08:44:38.313Z,22.40
2022-09-09T08:48:11.316Z,22.40
2022-09-09T08:51:34.533Z,22.40
2022-09-09T08:55:04.008Z,22.50
2022-09-09T08:58:30.335Z,22.50
2022-09-09T09:02:27.772Z,22.50
2022-09-09T09:06:07.155Z,22.60
2022-09-09T09:09:53.794Z,22.70
2022-09-09T09:13:25.561Z,22.70
2022-09-09T09:16:55.665Z,22.70
2022-09-09T09:20:42.699Z,22.70
2022-09-09T09:24:21.506Z,22.70
2022-09-09T09:27:54.079Z,22.70
2022-09-09T09:31:16.474Z,22.70
2022-09-09T09:34:42.386Z,22.70
2022-09-09T09:42:18.831Z,22.80
2022-09-09T09:45:55.199Z,22.80
2022-09-09T09:49:28.834Z,22.90
2022-09-09T09:52:59.100Z,23.00
2022-09-09T09:56:30.153Z,23.10
2022-09-09T10:00:12.902Z,23.10
2022-09-09T10:03:38.602Z,23.10
2022-09-09T10:07:10.821Z,23.10
2022-09-09T10:10:53.141Z,23.10
2022-09-09T10:14:23.184Z,23.10
2022-09-09T10:18:19.703Z,23.20
2022-09-09T10:21:56.479Z,23.20
2022-09-09T10:25:46.926Z,23.20
2022-09-09T10:29:32.322Z,23.20
2022-09-09T10:33:06.842Z,23.20
2022-09-09T10:36:30.492Z,23.20
2022-09-09T10:40:21.738Z,23.20
2022-09-09T10:44:00.158Z,23.10
2022-09-09T10:47:34.403Z,23.10
2022-09-09T10:51:22.162Z,23.10
2022-09-09T10:54:55.217Z,23.20
2022-09-09T10:58:43.712Z,23.10
2022-09-09T11:02:26.288Z,23.10
2022-09-09T11:05:54.958Z,23.10
2022-09-09T11:09:22.343Z,23.10
2022-09-09T11:12:48.591Z,23.10
2022-09-09T11:16:29.918Z,23.20
2022-09-09T11:19:52.811Z,23.20
2022-09-09T11:23:23.224Z,23.20
2022-09-09T11:27:00.742Z,23.20
2022-09-09T11:30:54.801Z,23.20
2022-09-09T11:34:34.452Z,23.20
2022-09-09T11:38:12.098Z,23.20
2022-09-09T11:41:38.530Z,23.20
2022-09-09T11:45:12.247Z,23.20
2022-09-09T11:48:38.778Z,23.20
2022-09-09T11:52:22.787Z,23.20
2022-09-09T11:55:44.994Z,23.20
2022-09-09T11:59:23.855Z,23.20
2022-09-09T12:02:51.315Z,23.20
2022-09-09T12:06:27.655Z,23.20
2022-09-09T12:10:08.007Z,23.30
2022-09-09T12:13:32.374Z,23.30
2022-09-09T12:16:54.769Z,23.20
2022-09-09T12:20:23.062Z,23.30
2022-09-09T12:23:54.298Z,23.30
2022-09-09T12:27:34.800Z,23.30
2022-09-09T12:31:05.358Z,23.40
2022-09-09T12:34:45.324Z,23.30
2022-09-09T12:38:12.489Z,23.40
2022-09-09T12:41:34.727Z,23.40
2022-09-09T12:44:59.519Z,23.40
2022-09-09T12:48:22.217Z,23.40
2022-09-09T12:51:44.811Z,23.40
2022-09-09T12:55:09.413Z,23.40
2022-09-09T12:58:35.803Z,23.40
2022-09-09T13:01:59.742Z,23.40
2022-09-09T13:05:29.096Z,23.50
2022-09-09T13:08:55.862Z,23.40
2022-09-09T13:12:21.991Z,23.40
2022-09-09T13:16:21.484Z,23.40
2022-09-09T13:19:47.237Z,23.40
2022-09-09T13:23:13.334Z,23.40
2022-09-09T13:26:35.833Z,23.40
2022-09-09T13:29:58.080Z,23.40
2022-09-09T13:33:24.081Z,23.40
2022-09-09T13:36:49.728Z,23.40
2022-09-09T13:40:20.904Z,23.40
2022-09-09T13:43:48.364Z,23.40
2022-09-09T13:47:20.899Z,23.40
2022-09-09T13:50:43.171Z,23.40
2022-09-09T13:54:11.138Z,23.40
2022-09-09T13:57:33.367Z,23.40
2022-09-09T14:00:55.677Z,23.40
2022-09-09T14:04:18.361Z,23.30
2022-09-09T14:07:41.500Z,23.30
2022-09-09T14:11:08.804Z,23.30
2022-09-09T14:14:31.040Z,23.30
2022-09-09T14:17:53.235Z,23.40
2022-09-09T14:21:16.652Z,23.40
2022-09-09T14:24:39.216Z,23.40
2022-09-09T14:28:02.920Z,23.40
2022-09-09T14:31:26.169Z,23.40
2022-09-09T14:34:50.625Z,23.50
2022-09-09T14:38:18.327Z,23.40
2022-09-09T14:41:41.253Z,23.40
2022-09-09T14:45:04.184Z,23.40
2022-09-09T14:48:26.396Z,23.40
2022-09-09T14:51:49.116Z,23.40
2022-09-09T14:55:12.153Z,23.50
2022-09-09T14:58:34.506Z,23.40
2022-09-09T15:01:56.878Z,23.40
2022-09-09T15:05:19.974Z,23.40
2022-09-09T15:08:44.717Z,23.50
2022-09-09T15:12:07.105Z,23.40
2022-09-09T15:15:29.320Z,23.40
2022-09-09T15:18:54.116Z,23.40
2022-09-09T15:22:16.359Z,23.50
2022-09-09T15:25:38.596Z,23.50
2022-09-09T15:29:01.139Z,23.50
2022-09-09T15:32:23.369Z,23.50
2022-09-09T15:35:45.822Z,23.50
2022-09-09T15:39:13.426Z,23.40
2022-09-09T15:42:35.586Z,23.50
2022-09-09T15:46:06.440Z,23.40
2022-09-09T15:49:28.633Z,23.50
2022-09-09T15:52:51.018Z,23.50
2022-09-09T15:56:13.209Z,23.50
2022-09-09T15:59:35.820Z,23.50
2022-09-09T16:02:58.065Z,23.50
2022-09-09T16:06:22.416Z,23.50
2022-09-09T16:09:44.650Z,23.50
2022-09-09T16:13:06.901Z,23.60
2022-09-09T16:16:30.958Z,23.60
2022-09-09T16:19:55.242Z,23.60
2022-09-09T16:23:18.395Z,23.60
2022-09-09T16:26:45.622Z,23.60
2022-09-09T16:30:08.454Z,23.60
2022-09-09T16:33:31.588Z,23.60
2022-09-09T16:36:53.975Z,23.60
2022-09-09T16:40:18.278Z,23.60
2022-09-09T16:43:41.464Z,23.60
2022-09-09T16:47:04.334Z,23.60
2022-09-09T16:50:27.263Z,23.60
2022-09-09T16:53:49.521Z,23.60
2022-09-09T16:57:11.778Z,23.60
2022-09-09T17:00:34.940Z,23.70
2022-09-09T17:04:01.116Z,23.60
2022-09-09T17:07:23.790Z,23.60
2022-09-09T17:10:46.685Z,23.70
2022-09-09T17:14:12.349Z,23.60
2022-09-09T17:17:34.605Z,23.70
2022-09-09T17:20:56.960Z,23.50
2022-09-09T17:24:19.185Z,23.40
2022-09-09T17:27:41.422Z,23.20
2022-09-09T17:31:07.595Z,23.20
2022-09-09T17:34:29.844Z,23.10
2022-09-09T17:37:54.171Z,23.10
2022-09-09T17:41:19.494Z,22.90
2022-09-09T17:44:42.705Z,22.90
2022-09-09T17:48:05.156Z,22.80
2022-09-09T17:51:30.764Z,22.90
2022-09-09T17:54:54.761Z,23.10
2022-09-09T17:58:16.946Z,23.20
2022-09-09T18:01:41.905Z,23.30
2022-09-09T18:05:04.398Z,23.10
2022-09-09T18:08:26.675Z,22.90
2022-09-09T18:11:51.000Z,22.80
2022-09-09T18:15:14.380Z,22.80
2022-09-09T18:18:40.467Z,22.80
2022-09-09T18:22:05.340Z,22.70
2022-09-09T18:25:27.580Z,22.70
2022-09-09T18:28:53.373Z,22.60
2022-09-09T18:32:16.925Z,22.60
2022-09-09T18:35:39.320Z,22.60
2022-09-09T18:39:03.646Z,22.60
2022-09-09T18:42:26.630Z,22.60
2022-09-09T18:45:48.846Z,22.50
2022-09-09T18:49:12.730Z,22.50
2022-09-09T18:52:35.130Z,22.50
2022-09-09T18:56:02.169Z,22.50
2022-09-09T18:59:25.638Z,22.40
2022-09-09T19:02:53.142Z,22.40
2022-09-09T19:06:18.820Z,22.40
2022-09-09T19:09:41.313Z,22.40
2022-09-09T19:13:04.712Z,22.30
2022-09-09T19:16:30.105Z,22.30
2022-09-09T19:19:52.541Z,22.40
2022-09-09T19:23:14.846Z,22.40
2022-09-09T19:26:40.800Z,22.30
2022-09-09T19:30:03.463Z,22.30
2022-09-09T19:33:27.584Z,22.20
2022-09-09T19:36:51.610Z,22.30
2022-09-09T19:40:13.997Z,22.20
2022-09-09T19:43:36.896Z,22.10
2022-09-09T19:47:00.765Z,22.10
2022-09-09T19:50:23.238Z,22.10
2022-09-09T19:53:51.090Z,22.10
2022-09-09T19:57:13.615Z,22.00
2022-09-09T20:00:39.580Z,22.00
2022-09-09T20:04:04.515Z,22.10
2022-09-09T20:07:26.943Z,22.00
2022-09-09T20:10:53.710Z,22.00
2022-09-09T20:14:17.130Z,22.00
2022-09-09T20:17:39.359Z,21.90
2022-09-09T20:21:13.276Z,21.90
2022-09-09T20:24:36.966Z,21.90
2022-09-09T20:27:59.382Z,21.90
2022-09-09T20:31:24.957Z,21.90
2022-09-09T20:34:48.466Z,21.80
2022-09-09T20:38:11.028Z,21.80
2022-09-09T20:41:35.166Z,21.80
2022-09-09T20:44:57.394Z,21.60
2022-09-09T20:48:19.651Z,21.60
2022-09-09T20:51:42.266Z,21.60
2022-09-09T20:55:06.770Z,21.60
2022-09-09T20:58:33.504Z,21.50
2022-09-09T21:01:56.995Z,21.40
2022-09-09T21:05:23.983Z,21.40
2022-09-09T21:08:47.088Z,21.30
2022-09-09T21:12:09.333Z,21.30
2022-09-09T21:15:31.535Z,21.10
2022-09-09T21:18:54.656Z,21.30
2022-09-09T21:22:16.907Z,21.80
2022-09-09T21:25:39.540Z,22.10
2022-09-09T21:29:01.803Z,22.20
2022-09-09T21:32:24.050Z,22.40
2022-09-09T21:35:46.637Z,22.80
2022-09-09T21:39:08.882Z,22.90
2022-09-09T21:42:31.088Z,22.90
2022-09-09T21:45:53.667Z,22.80
2022-09-09T21:49:15.866Z,22.80
2022-09-09T21:52:38.106Z,22.80
2022-09-09T21:56:07.026Z,22.80
2022-09-09T21:59:29.297Z,22.80
2022-09-09T22:02:51.758Z,22.80
2022-09-09T22:06:16.423Z,22.80
2022-09-09T22:09:38.633Z,22.80
2022-09-09T22:13:00.898Z,22.80
2022-09-09T22:16:23.998Z,22.80
2022-09-09T22:19:47.057Z,22.80
2022-09-09T22:23:10.535Z,22.80
2022-09-09T22:26:36.293Z,22.80
2022-09-09T22:29:58.892Z,22.80
2022-09-09T22:33:21.208Z,22.90
2022-09-09T22:36:43.397Z,22.90
2022-09-09T22:40:06.389Z,22.90
2022-09-09T22:43:29.391Z,22.90
2022-09-09T22:46:52.232Z,22.80
2022-09-09T22:50:14.815Z,22.90
2022-09-09T22:53:37.706Z,22.90
2022-09-09T22:56:59.965Z,22.90
2022-09-09T23:00:22.471Z,22.80
2022-09-09T23:03:48.909Z,22.80
2022-09-09T23:07:11.248Z,22.80
2022-09-09T23:10:33.820Z,22.80
2022-09-09T23:13:57.988Z,22.80
2022-09-09T23:17:21.018Z,22.80
2022-09-09T23:20:43.217Z,22.80
2022-09-09T23:24:07.315Z,22.80
2022-09-09T23:27:29.912Z,22.80
2022-09-09T23:30:52.139Z,22.80
2022-09-09T23:34:14.748Z,22.80
2022-09-09T23:37:36.976Z,22.80
2022-09-09T23:41:04.498Z,22.80
2022-09-09T23:44:26.686Z,22.80
2022-09-09T23:47:48.926Z,22.80
2022-09-09T23:51:17.319Z,22.80
2022-09-09T23:54:39.608Z,22.80
2022-09-09T23:58:02.568Z,22.80
